Medfield, Massachusetts
Current Conditions -  °F | °C
As of 11:53 AM on Saturday 22 Nov 2014 (Local Time) from KOWD Reporting Station
Clear Clear  
Wind Chill: 29°   Ceiling: Unl
Heat Index: 38°   Visibility: 10mi
Dew Point:   Wind: 15mph
Humidity: 27%   Direction: 220°SW
Pressure: 30.27"   Gusts: 22mph
Location:  42.19°N, 71.3°W
Report Text: KOWD 221653Z 22013G19KT 10SM CLR 03/M14 A3027 RMK AO2 SLP250 T00331144
Loading
Personal Weather Stations






























Interactive Weather Map New forecast layout! Learn more

10-Day Weather Forecast

Advertisements
Track Severe Weather on mobile